sensor_id;sensor_type;location;lat;lon;timestamp;P1;durP1;ratioP1;P2;durP2;ratioP2
57433;SDS011;43277;52.672;6.984;2022-08-21T00:02:25;11.55;;;4.47;;
57433;SDS011;43277;52.672;6.984;2022-08-21T00:04:52;14.65;;;5.35;;
57433;SDS011;43277;52.672;6.984;2022-08-21T00:07:19;10.15;;;3.70;;
57433;SDS011;43277;52.672;6.984;2022-08-21T00:09:46;10.15;;;4.70;;
57433;SDS011;43277;52.672;6.984;2022-08-21T00:12:12;10.18;;;4.68;;
57433;SDS011;43277;52.672;6.984;2022-08-21T00:14:38;12.20;;;5.97;;
57433;SDS011;43277;52.672;6.984;2022-08-21T00:17:04;14.57;;;6.63;;
57433;SDS011;43277;52.672;6.984;2022-08-21T00:19:30;17.45;;;6.20;;
57433;SDS011;43277;52.672;6.984;2022-08-21T00:21:57;13.45;;;6.07;;
57433;SDS011;43277;52.672;6.984;2022-08-21T00:24:23;16.95;;;6.50;;
57433;SDS011;43277;52.672;6.984;2022-08-21T00:26:49;18.05;;;6.97;;
57433;SDS011;43277;52.672;6.984;2022-08-21T00:29:16;13.05;;;6.00;;
57433;SDS011;43277;52.672;6.984;2022-08-21T00:31:43;12.70;;;6.22;;
57433;SDS011;43277;52.672;6.984;2022-08-21T00:34:09;13.70;;;5.82;;
57433;SDS011;43277;52.672;6.984;2022-08-21T00:36:36;8.48;;;4.72;;
57433;SDS011;43277;52.672;6.984;2022-08-21T00:39:03;12.77;;;6.28;;
57433;SDS011;43277;52.672;6.984;2022-08-21T00:41:29;10.73;;;5.95;;
57433;SDS011;43277;52.672;6.984;2022-08-21T00:43:55;15.82;;;6.70;;
57433;SDS011;43277;52.672;6.984;2022-08-21T00:46:21;12.75;;;5.90;;
57433;SDS011;43277;52.672;6.984;2022-08-21T00:48:46;13.50;;;5.70;;
57433;SDS011;43277;52.672;6.984;2022-08-21T00:51:13;8.50;;;4.88;;
57433;SDS011;43277;52.672;6.984;2022-08-21T00:53:48;8.35;;;4.97;;
57433;SDS011;43277;52.672;6.984;2022-08-21T00:56:18;13.07;;;5.33;;
57433;SDS011;43277;52.672;6.984;2022-08-21T00:58:45;14.02;;;5.30;;
57433;SDS011;43277;52.672;6.984;2022-08-21T01:01:13;12.65;;;5.43;;
57433;SDS011;43277;52.672;6.984;2022-08-21T01:03:39;10.38;;;4.88;;
57433;SDS011;43277;52.672;6.984;2022-08-21T01:06:05;11.05;;;5.47;;
57433;SDS011;43277;52.672;6.984;2022-08-21T01:08:32;10.93;;;6.07;;
57433;SDS011;43277;52.672;6.984;2022-08-21T01:10:59;10.32;;;4.95;;
57433;SDS011;43277;52.672;6.984;2022-08-21T01:13:27;13.88;;;6.55;;
57433;SDS011;43277;52.672;6.984;2022-08-21T01:15:56;8.18;;;4.20;;
57433;SDS011;43277;52.672;6.984;2022-08-21T01:18:24;16.02;;;6.97;;
57433;SDS011;43277;52.672;6.984;2022-08-21T01:21:01;17.08;;;7.07;;
57433;SDS011;43277;52.672;6.984;2022-08-21T01:23:42;14.77;;;6.97;;
57433;SDS011;43277;52.672;6.984;2022-08-21T01:26:11;15.60;;;7.32;;
57433;SDS011;43277;52.672;6.984;2022-08-21T01:28:38;17.75;;;7.40;;
57433;SDS011;43277;52.672;6.984;2022-08-21T01:31:08;15.68;;;6.80;;
57433;SDS011;43277;52.672;6.984;2022-08-21T01:33:38;16.27;;;7.38;;
57433;SDS011;43277;52.672;6.984;2022-08-21T01:36:03;16.00;;;6.57;;
57433;SDS011;43277;52.672;6.984;2022-08-21T01:38:29;17.63;;;7.43;;
57433;SDS011;43277;52.672;6.984;2022-08-21T01:40:55;17.10;;;6.72;;
57433;SDS011;43277;52.672;6.984;2022-08-21T01:43:21;14.73;;;7.75;;
57433;SDS011;43277;52.672;6.984;2022-08-21T01:45:47;16.23;;;7.05;;
57433;SDS011;43277;52.672;6.984;2022-08-21T01:48:12;14.60;;;7.57;;
57433;SDS011;43277;52.672;6.984;2022-08-21T01:50:38;15.93;;;6.97;;
57433;SDS011;43277;52.672;6.984;2022-08-21T01:53:03;13.35;;;6.90;;
57433;SDS011;43277;52.672;6.984;2022-08-21T01:55:29;16.63;;;7.88;;
57433;SDS011;43277;52.672;6.984;2022-08-21T01:57:56;14.93;;;7.90;;
57433;SDS011;43277;52.672;6.984;2022-08-21T02:00:23;15.27;;;8.20;;
57433;SDS011;43277;52.672;6.984;2022-08-21T02:02:49;16.58;;;7.30;;
57433;SDS011;43277;52.672;6.984;2022-08-21T02:05:15;13.27;;;6.15;;
57433;SDS011;43277;52.672;6.984;2022-08-21T02:07:42;14.73;;;7.25;;
57433;SDS011;43277;52.672;6.984;2022-08-21T02:10:13;10.73;;;5.65;;
57433;SDS011;43277;52.672;6.984;2022-08-21T02:12:40;12.40;;;6.30;;
57433;SDS011;43277;52.672;6.984;2022-08-21T02:15:06;10.70;;;5.18;;
57433;SDS011;43277;52.672;6.984;2022-08-21T02:17:38;9.30;;;5.13;;
57433;SDS011;43277;52.672;6.984;2022-08-21T02:20:09;11.60;;;5.03;;
57433;SDS011;43277;52.672;6.984;2022-08-21T02:22:39;12.75;;;7.50;;
57433;SDS011;43277;52.672;6.984;2022-08-21T02:25:05;9.13;;;4.80;;
57433;SDS011;43277;52.672;6.984;2022-08-21T02:27:36;9.40;;;6.35;;
57433;SDS011;43277;52.672;6.984;2022-08-21T02:30:03;9.00;;;5.40;;
57433;SDS011;43277;52.672;6.984;2022-08-21T02:32:29;7.40;;;4.00;;
57433;SDS011;43277;52.672;6.984;2022-08-21T02:34:56;11.23;;;6.78;;
57433;SDS011;43277;52.672;6.984;2022-08-21T02:37:22;7.97;;;6.05;;
57433;SDS011;43277;52.672;6.984;2022-08-21T02:39:48;13.63;;;9.73;;
57433;SDS011;43277;52.672;6.984;2022-08-21T02:42:14;10.52;;;5.72;;
57433;SDS011;43277;52.672;6.984;2022-08-21T02:44:40;13.43;;;7.72;;
57433;SDS011;43277;52.672;6.984;2022-08-21T02:47:06;11.35;;;7.72;;
57433;SDS011;43277;52.672;6.984;2022-08-21T02:49:32;18.40;;;8.30;;
57433;SDS011;43277;52.672;6.984;2022-08-21T02:51:57;22.05;;;12.68;;
57433;SDS011;43277;52.672;6.984;2022-08-21T02:54:23;16.30;;;9.30;;
57433;SDS011;43277;52.672;6.984;2022-08-21T02:56:48;11.98;;;7.63;;
57433;SDS011;43277;52.672;6.984;2022-08-21T02:59:14;11.32;;;7.45;;
57433;SDS011;43277;52.672;6.984;2022-08-21T03:01:40;13.93;;;10.20;;
57433;SDS011;43277;52.672;6.984;2022-08-21T03:04:05;12.63;;;9.20;;
57433;SDS011;43277;52.672;6.984;2022-08-21T03:06:31;13.68;;;9.40;;
57433;SDS011;43277;52.672;6.984;2022-08-21T03:08:56;13.85;;;10.63;;
57433;SDS011;43277;52.672;6.984;2022-08-21T03:11:22;8.63;;;7.20;;
57433;SDS011;43277;52.672;6.984;2022-08-21T03:13:48;8.57;;;5.72;;
57433;SDS011;43277;52.672;6.984;2022-08-21T03:16:13;8.80;;;7.13;;
57433;SDS011;43277;52.672;6.984;2022-08-21T03:18:39;9.60;;;6.80;;
57433;SDS011;43277;52.672;6.984;2022-08-21T03:21:05;8.13;;;5.13;;
57433;SDS011;43277;52.672;6.984;2022-08-21T03:23:31;11.23;;;6.40;;
57433;SDS011;43277;52.672;6.984;2022-08-21T03:25:57;11.82;;;7.93;;
57433;SDS011;43277;52.672;6.984;2022-08-21T03:28:23;9.10;;;6.30;;
57433;SDS011;43277;52.672;6.984;2022-08-21T03:30:50;10.05;;;6.95;;
57433;SDS011;43277;52.672;6.984;2022-08-21T03:33:16;10.93;;;9.38;;
57433;SDS011;43277;52.672;6.984;2022-08-21T03:35:43;10.05;;;6.72;;
57433;SDS011;43277;52.672;6.984;2022-08-21T03:38:12;8.88;;;5.15;;
57433;SDS011;43277;52.672;6.984;2022-08-21T03:40:38;11.10;;;6.65;;
57433;SDS011;43277;52.672;6.984;2022-08-21T03:43:04;9.90;;;7.30;;
57433;SDS011;43277;52.672;6.984;2022-08-21T03:45:34;7.75;;;5.70;;
57433;SDS011;43277;52.672;6.984;2022-08-21T03:48:00;12.98;;;8.60;;
57433;SDS011;43277;52.672;6.984;2022-08-21T03:50:30;14.75;;;9.77;;
57433;SDS011;43277;52.672;6.984;2022-08-21T03:52:58;18.42;;;12.50;;
57433;SDS011;43277;52.672;6.984;2022-08-21T03:55:24;16.23;;;12.85;;
57433;SDS011;43277;52.672;6.984;2022-08-21T03:57:50;15.13;;;11.80;;
57433;SDS011;43277;52.672;6.984;2022-08-21T04:00:16;19.35;;;13.30;;
57433;SDS011;43277;52.672;6.984;2022-08-21T04:02:43;16.13;;;11.82;;
57433;SDS011;43277;52.672;6.984;2022-08-21T04:05:11;18.58;;;14.07;;
57433;SDS011;43277;52.672;6.984;2022-08-21T04:07:37;17.55;;;14.20;;
57433;SDS011;43277;52.672;6.984;2022-08-21T04:10:04;16.33;;;12.70;;
57433;SDS011;43277;52.672;6.984;2022-08-21T04:12:31;15.13;;;10.93;;
57433;SDS011;43277;52.672;6.984;2022-08-21T04:14:56;15.10;;;9.38;;
57433;SDS011;43277;52.672;6.984;2022-08-21T04:17:22;13.98;;;9.50;;
57433;SDS011;43277;52.672;6.984;2022-08-21T04:19:48;58.78;;;13.00;;
57433;SDS011;43277;52.672;6.984;2022-08-21T04:22:14;12.60;;;10.20;;
57433;SDS011;43277;52.672;6.984;2022-08-21T04:24:41;12.73;;;9.98;;
57433;SDS011;43277;52.672;6.984;2022-08-21T04:27:06;12.55;;;8.85;;
57433;SDS011;43277;52.672;6.984;2022-08-21T04:29:32;12.40;;;9.00;;
57433;SDS011;43277;52.672;6.984;2022-08-21T04:31:58;10.70;;;7.55;;
57433;SDS011;43277;52.672;6.984;2022-08-21T04:34:24;11.25;;;7.45;;
57433;SDS011;43277;52.672;6.984;2022-08-21T04:36:49;12.30;;;7.75;;
57433;SDS011;43277;52.672;6.984;2022-08-21T04:39:15;13.38;;;8.90;;
57433;SDS011;43277;52.672;6.984;2022-08-21T04:41:41;13.75;;;10.38;;
57433;SDS011;43277;52.672;6.984;2022-08-21T04:44:06;16.55;;;11.32;;
57433;SDS011;43277;52.672;6.984;2022-08-21T04:46:33;17.48;;;11.38;;
57433;SDS011;43277;52.672;6.984;2022-08-21T04:48:59;14.48;;;10.65;;
57433;SDS011;43277;52.672;6.984;2022-08-21T04:51:32;12.70;;;9.20;;
57433;SDS011;43277;52.672;6.984;2022-08-21T04:54:11;13.00;;;9.90;;
57433;SDS011;43277;52.672;6.984;2022-08-21T04:56:42;15.07;;;10.93;;
57433;SDS011;43277;52.672;6.984;2022-08-21T04:59:32;16.17;;;10.98;;
57433;SDS011;43277;52.672;6.984;2022-08-21T05:02:01;15.18;;;10.38;;
57433;SDS011;43277;52.672;6.984;2022-08-21T05:04:29;16.30;;;10.02;;
57433;SDS011;43277;52.672;6.984;2022-08-21T05:06:58;16.27;;;10.65;;
57433;SDS011;43277;52.672;6.984;2022-08-21T05:09:28;15.45;;;10.88;;
57433;SDS011;43277;52.672;6.984;2022-08-21T05:11:55;17.92;;;11.48;;
57433;SDS011;43277;52.672;6.984;2022-08-21T05:14:21;13.82;;;9.82;;
57433;SDS011;43277;52.672;6.984;2022-08-21T05:16:46;13.93;;;11.00;;
57433;SDS011;43277;52.672;6.984;2022-08-21T05:19:12;14.88;;;9.90;;
57433;SDS011;43277;52.672;6.984;2022-08-21T05:21:41;17.02;;;9.40;;
57433;SDS011;43277;52.672;6.984;2022-08-21T05:24:08;16.67;;;10.05;;
57433;SDS011;43277;52.672;6.984;2022-08-21T05:26:35;14.40;;;9.55;;
57433;SDS011;43277;52.672;6.984;2022-08-21T05:29:01;16.13;;;10.35;;
57433;SDS011;43277;52.672;6.984;2022-08-21T05:31:28;14.15;;;9.07;;
57433;SDS011;43277;52.672;6.984;2022-08-21T05:33:53;15.00;;;10.45;;
57433;SDS011;43277;52.672;6.984;2022-08-21T05:36:19;15.30;;;9.90;;
57433;SDS011;43277;52.672;6.984;2022-08-21T05:38:44;14.32;;;10.70;;
57433;SDS011;43277;52.672;6.984;2022-08-21T05:41:10;15.15;;;10.75;;
57433;SDS011;43277;52.672;6.984;2022-08-21T05:43:36;15.35;;;10.18;;
57433;SDS011;43277;52.672;6.984;2022-08-21T05:46:02;17.38;;;10.68;;
57433;SDS011;43277;52.672;6.984;2022-08-21T05:48:29;17.67;;;10.63;;
57433;SDS011;43277;52.672;6.984;2022-08-21T05:50:55;15.57;;;10.55;;
57433;SDS011;43277;52.672;6.984;2022-08-21T05:53:21;14.27;;;10.07;;
57433;SDS011;43277;52.672;6.984;2022-08-21T05:55:48;14.70;;;9.80;;
57433;SDS011;43277;52.672;6.984;2022-08-21T05:58:16;15.05;;;8.60;;
57433;SDS011;43277;52.672;6.984;2022-08-21T06:00:43;14.63;;;8.50;;
57433;SDS011;43277;52.672;6.984;2022-08-21T06:03:15;15.98;;;8.77;;
57433;SDS011;43277;52.672;6.984;2022-08-21T06:05:45;12.93;;;8.45;;
57433;SDS011;43277;52.672;6.984;2022-08-21T06:08:11;18.48;;;8.40;;
57433;SDS011;43277;52.672;6.984;2022-08-21T06:10:38;11.20;;;7.85;;
57433;SDS011;43277;52.672;6.984;2022-08-21T06:13:03;13.65;;;8.27;;
57433;SDS011;43277;52.672;6.984;2022-08-21T06:15:29;13.85;;;7.78;;
57433;SDS011;43277;52.672;6.984;2022-08-21T06:17:55;15.65;;;7.70;;
57433;SDS011;43277;52.672;6.984;2022-08-21T06:20:21;10.15;;;6.60;;
57433;SDS011;43277;52.672;6.984;2022-08-21T06:22:47;12.82;;;6.68;;
57433;SDS011;43277;52.672;6.984;2022-08-21T06:25:12;12.15;;;6.40;;
57433;SDS011;43277;52.672;6.984;2022-08-21T06:27:38;11.05;;;6.05;;
57433;SDS011;43277;52.672;6.984;2022-08-21T06:30:04;11.82;;;6.03;;
57433;SDS011;43277;52.672;6.984;2022-08-21T06:32:31;11.05;;;5.80;;
57433;SDS011;43277;52.672;6.984;2022-08-21T06:34:57;12.07;;;5.72;;
57433;SDS011;43277;52.672;6.984;2022-08-21T06:37:22;14.73;;;6.63;;
57433;SDS011;43277;52.672;6.984;2022-08-21T06:39:48;12.88;;;6.43;;
57433;SDS011;43277;52.672;6.984;2022-08-21T06:42:16;11.80;;;6.35;;
57433;SDS011;43277;52.672;6.984;2022-08-21T06:44:42;15.82;;;6.03;;
57433;SDS011;43277;52.672;6.984;2022-08-21T06:47:09;14.55;;;6.50;;
57433;SDS011;43277;52.672;6.984;2022-08-21T06:49:35;11.93;;;5.60;;
57433;SDS011;43277;52.672;6.984;2022-08-21T06:52:02;14.10;;;5.40;;
57433;SDS011;43277;52.672;6.984;2022-08-21T06:54:28;13.18;;;5.65;;
57433;SDS011;43277;52.672;6.984;2022-08-21T06:56:54;11.40;;;5.43;;
57433;SDS011;43277;52.672;6.984;2022-08-21T06:59:20;15.80;;;5.40;;
57433;SDS011;43277;52.672;6.984;2022-08-21T07:01:45;11.55;;;4.82;;
57433;SDS011;43277;52.672;6.984;2022-08-21T07:04:11;13.63;;;5.00;;
57433;SDS011;43277;52.672;6.984;2022-08-21T07:06:37;11.63;;;4.47;;
57433;SDS011;43277;52.672;6.984;2022-08-21T07:09:02;13.07;;;4.68;;
57433;SDS011;43277;52.672;6.984;2022-08-21T07:11:28;9.57;;;4.43;;
57433;SDS011;43277;52.672;6.984;2022-08-21T07:13:54;10.90;;;4.68;;
57433;SDS011;43277;52.672;6.984;2022-08-21T07:16:21;10.30;;;4.32;;
57433;SDS011;43277;52.672;6.984;2022-08-21T07:18:47;10.02;;;3.92;;
57433;SDS011;43277;52.672;6.984;2022-08-21T07:21:13;14.15;;;4.68;;
57433;SDS011;43277;52.672;6.984;2022-08-21T07:23:42;11.40;;;4.13;;
57433;SDS011;43277;52.672;6.984;2022-08-21T07:26:10;10.07;;;4.05;;
57433;SDS011;43277;52.672;6.984;2022-08-21T07:28:36;12.07;;;4.30;;
57433;SDS011;43277;52.672;6.984;2022-08-21T07:31:02;12.65;;;4.38;;
57433;SDS011;43277;52.672;6.984;2022-08-21T07:33:29;10.63;;;4.38;;
57433;SDS011;43277;52.672;6.984;2022-08-21T07:35:57;14.23;;;4.30;;
57433;SDS011;43277;52.672;6.984;2022-08-21T07:38:23;12.52;;;4.07;;
57433;SDS011;43277;52.672;6.984;2022-08-21T07:40:49;11.90;;;4.25;;
57433;SDS011;43277;52.672;6.984;2022-08-21T07:43:17;13.63;;;4.32;;
57433;SDS011;43277;52.672;6.984;2022-08-21T07:45:43;13.90;;;3.67;;
57433;SDS011;43277;52.672;6.984;2022-08-21T07:48:09;13.27;;;3.83;;
57433;SDS011;43277;52.672;6.984;2022-08-21T07:50:35;12.80;;;3.92;;
57433;SDS011;43277;52.672;6.984;2022-08-21T07:53:01;12.07;;;3.72;;
57433;SDS011;43277;52.672;6.984;2022-08-21T07:55:27;11.32;;;3.83;;
57433;SDS011;43277;52.672;6.984;2022-08-21T07:57:53;9.85;;;3.30;;
57433;SDS011;43277;52.672;6.984;2022-08-21T08:00:21;10.68;;;3.53;;
57433;SDS011;43277;52.672;6.984;2022-08-21T08:02:49;13.02;;;3.67;;
57433;SDS011;43277;52.672;6.984;2022-08-21T08:05:17;8.93;;;3.10;;
57433;SDS011;43277;52.672;6.984;2022-08-21T08:07:44;12.40;;;3.10;;
57433;SDS011;43277;52.672;6.984;2022-08-21T08:10:10;9.00;;;3.00;;
57433;SDS011;43277;52.672;6.984;2022-08-21T08:12:36;14.18;;;3.75;;
57433;SDS011;43277;52.672;6.984;2022-08-21T08:15:05;9.60;;;3.00;;
57433;SDS011;43277;52.672;6.984;2022-08-21T08:17:35;9.80;;;3.15;;
57433;SDS011;43277;52.672;6.984;2022-08-21T08:20:02;12.13;;;3.40;;
57433;SDS011;43277;52.672;6.984;2022-08-21T08:22:29;9.43;;;3.10;;
57433;SDS011;43277;52.672;6.984;2022-08-21T08:24:54;11.18;;;3.08;;
57433;SDS011;43277;52.672;6.984;2022-08-21T08:27:21;9.02;;;3.10;;
57433;SDS011;43277;52.672;6.984;2022-08-21T08:29:47;12.75;;;3.30;;
57433;SDS011;43277;52.672;6.984;2022-08-21T08:32:13;9.85;;;3.17;;
57433;SDS011;43277;52.672;6.984;2022-08-21T08:34:39;10.65;;;2.53;;
57433;SDS011;43277;52.672;6.984;2022-08-21T08:37:06;9.75;;;2.97;;
57433;SDS011;43277;52.672;6.984;2022-08-21T08:39:33;10.38;;;3.10;;
57433;SDS011;43277;52.672;6.984;2022-08-21T08:42:07;9.05;;;3.13;;
57433;SDS011;43277;52.672;6.984;2022-08-21T08:44:37;9.82;;;3.25;;
57433;SDS011;43277;52.672;6.984;2022-08-21T08:47:03;8.25;;;2.65;;
57433;SDS011;43277;52.672;6.984;2022-08-21T08:52:31;10.30;;;2.97;;
57433;SDS011;43277;52.672;6.984;2022-08-21T08:57:31;9.43;;;2.60;;
57433;SDS011;43277;52.672;6.984;2022-08-21T08:59:59;11.25;;;3.20;;
57433;SDS011;43277;52.672;6.984;2022-08-21T09:02:29;9.80;;;2.88;;
57433;SDS011;43277;52.672;6.984;2022-08-21T09:04:55;11.00;;;3.08;;
57433;SDS011;43277;52.672;6.984;2022-08-21T09:10:22;10.75;;;3.20;;
57433;SDS011;43277;52.672;6.984;2022-08-21T09:18:41;11.85;;;2.95;;
57433;SDS011;43277;52.672;6.984;2022-08-21T09:24:02;11.00;;;2.88;;
57433;SDS011;43277;52.672;6.984;2022-08-21T09:29:28;9.70;;;3.22;;
57433;SDS011;43277;52.672;6.984;2022-08-21T09:31:57;7.78;;;2.72;;
57433;SDS011;43277;52.672;6.984;2022-08-21T09:34:27;9.70;;;2.95;;
57433;SDS011;43277;52.672;6.984;2022-08-21T09:36:54;7.60;;;2.25;;
57433;SDS011;43277;52.672;6.984;2022-08-21T09:39:27;10.07;;;2.78;;
57433;SDS011;43277;52.672;6.984;2022-08-21T09:42:06;8.40;;;2.55;;
57433;SDS011;43277;52.672;6.984;2022-08-21T09:44:35;12.27;;;2.70;;
57433;SDS011;43277;52.672;6.984;2022-08-21T09:47:06;9.55;;;2.60;;
57433;SDS011;43277;52.672;6.984;2022-08-21T09:49:33;10.50;;;2.65;;
57433;SDS011;43277;52.672;6.984;2022-08-21T09:52:17;10.73;;;2.80;;
57433;SDS011;43277;52.672;6.984;2022-08-21T09:54:46;9.95;;;2.97;;
57433;SDS011;43277;52.672;6.984;2022-08-21T09:57:19;10.48;;;2.72;;
57433;SDS011;43277;52.672;6.984;2022-08-21T10:02:55;8.50;;;2.33;;
57433;SDS011;43277;52.672;6.984;2022-08-21T10:05:55;9.13;;;2.60;;
57433;SDS011;43277;52.672;6.984;2022-08-21T10:08:30;9.68;;;2.15;;
57433;SDS011;43277;52.672;6.984;2022-08-21T10:11:05;9.18;;;2.10;;
57433;SDS011;43277;52.672;6.984;2022-08-21T10:19:07;9.35;;;2.90;;
57433;SDS011;43277;52.672;6.984;2022-08-21T10:21:43;11.20;;;3.30;;
57433;SDS011;43277;52.672;6.984;2022-08-21T10:24:21;7.90;;;2.40;;
57433;SDS011;43277;52.672;6.984;2022-08-21T10:27:14;10.27;;;2.50;;
57433;SDS011;43277;52.672;6.984;2022-08-21T10:29:54;8.10;;;2.35;;
57433;SDS011;43277;52.672;6.984;2022-08-21T10:42:52;9.55;;;2.30;;
57433;SDS011;43277;52.672;6.984;2022-08-21T10:56:20;8.02;;;2.80;;
57433;SDS011;43277;52.672;6.984;2022-08-21T11:01:29;7.65;;;2.40;;
57433;SDS011;43277;52.672;6.984;2022-08-21T11:04:23;9.10;;;2.63;;
57433;SDS011;43277;52.672;6.984;2022-08-21T11:07:06;11.73;;;2.45;;
57433;SDS011;43277;52.672;6.984;2022-08-21T11:09:38;8.63;;;1.95;;
57433;SDS011;43277;52.672;6.984;2022-08-21T11:17:49;8.05;;;2.10;;
57433;SDS011;43277;52.672;6.984;2022-08-21T11:20:23;8.90;;;2.13;;
57433;SDS011;43277;52.672;6.984;2022-08-21T11:23:03;9.32;;;2.17;;
57433;SDS011;43277;52.672;6.984;2022-08-21T11:25:37;8.00;;;2.05;;
57433;SDS011;43277;52.672;6.984;2022-08-21T11:28:13;9.30;;;2.10;;
57433;SDS011;43277;52.672;6.984;2022-08-21T11:31:07;7.78;;;1.92;;
57433;SDS011;43277;52.672;6.984;2022-08-21T11:39:54;9.57;;;2.35;;
57433;SDS011;43277;52.672;6.984;2022-08-21T11:50:40;9.18;;;2.38;;
57433;SDS011;43277;52.672;6.984;2022-08-21T11:53:20;7.88;;;2.20;;
57433;SDS011;43277;52.672;6.984;2022-08-21T11:55:55;7.53;;;1.98;;
57433;SDS011;43277;52.672;6.984;2022-08-21T12:01:06;9.18;;;2.15;;
57433;SDS011;43277;52.672;6.984;2022-08-21T12:03:38;9.48;;;2.15;;
57433;SDS011;43277;52.672;6.984;2022-08-21T12:06:09;8.07;;;2.35;;
57433;SDS011;43277;52.672;6.984;2022-08-21T12:08:37;8.43;;;1.80;;
57433;SDS011;43277;52.672;6.984;2022-08-21T12:22:07;9.27;;;2.20;;
57433;SDS011;43277;52.672;6.984;2022-08-21T12:24:39;7.32;;;1.90;;
57433;SDS011;43277;52.672;6.984;2022-08-21T12:30:00;7.40;;;2.00;;
57433;SDS011;43277;52.672;6.984;2022-08-21T12:37:45;7.65;;;1.90;;
57433;SDS011;43277;52.672;6.984;2022-08-21T12:40:37;8.48;;;1.90;;
57433;SDS011;43277;52.672;6.984;2022-08-21T12:43:20;8.30;;;2.05;;
57433;SDS011;43277;52.672;6.984;2022-08-21T12:45:58;10.07;;;2.20;;
57433;SDS011;43277;52.672;6.984;2022-08-21T12:48:41;8.55;;;1.95;;
57433;SDS011;43277;52.672;6.984;2022-08-21T12:51:23;7.40;;;1.90;;
57433;SDS011;43277;52.672;6.984;2022-08-21T12:53:56;9.07;;;1.80;;
57433;SDS011;43277;52.672;6.984;2022-08-21T12:56:24;9.82;;;2.10;;
57433;SDS011;43277;52.672;6.984;2022-08-21T12:59:11;9.70;;;1.90;;
57433;SDS011;43277;52.672;6.984;2022-08-21T13:01:39;7.78;;;1.70;;
57433;SDS011;43277;52.672;6.984;2022-08-21T13:04:16;7.43;;;1.73;;
57433;SDS011;43277;52.672;6.984;2022-08-21T13:06:46;6.50;;;1.83;;
57433;SDS011;43277;52.672;6.984;2022-08-21T13:09:18;9.02;;;1.98;;
57433;SDS011;43277;52.672;6.984;2022-08-21T13:11:48;8.55;;;1.77;;
57433;SDS011;43277;52.672;6.984;2022-08-21T13:14:26;8.27;;;1.70;;
57433;SDS011;43277;52.672;6.984;2022-08-21T13:19:22;8.77;;;1.95;;
57433;SDS011;43277;52.672;6.984;2022-08-21T13:21:49;8.02;;;1.98;;
57433;SDS011;43277;52.672;6.984;2022-08-21T13:26:57;8.05;;;2.08;;
57433;SDS011;43277;52.672;6.984;2022-08-21T13:29:27;8.48;;;1.95;;
57433;SDS011;43277;52.672;6.984;2022-08-21T13:31:55;8.10;;;2.20;;
57433;SDS011;43277;52.672;6.984;2022-08-21T13:34:24;9.43;;;2.25;;
57433;SDS011;43277;52.672;6.984;2022-08-21T13:36:57;9.07;;;1.80;;
57433;SDS011;43277;52.672;6.984;2022-08-21T13:39:25;6.85;;;1.85;;
57433;SDS011;43277;52.672;6.984;2022-08-21T13:41:52;8.27;;;1.85;;
57433;SDS011;43277;52.672;6.984;2022-08-21T13:46:51;10.10;;;2.22;;
57433;SDS011;43277;52.672;6.984;2022-08-21T13:49:20;7.90;;;2.03;;
57433;SDS011;43277;52.672;6.984;2022-08-21T13:51:53;9.02;;;2.00;;
57433;SDS011;43277;52.672;6.984;2022-08-21T13:54:23;6.68;;;1.70;;
57433;SDS011;43277;52.672;6.984;2022-08-21T13:56:51;10.98;;;2.10;;
57433;SDS011;43277;52.672;6.984;2022-08-21T13:59:32;8.05;;;2.25;;
57433;SDS011;43277;52.672;6.984;2022-08-21T14:01:59;7.68;;;1.73;;
57433;SDS011;43277;52.672;6.984;2022-08-21T14:04:42;7.40;;;1.80;;
57433;SDS011;43277;52.672;6.984;2022-08-21T14:09:59;8.00;;;2.15;;
57433;SDS011;43277;52.672;6.984;2022-08-21T14:12:32;9.07;;;2.33;;
57433;SDS011;43277;52.672;6.984;2022-08-21T14:15:09;9.02;;;2.40;;
57433;SDS011;43277;52.672;6.984;2022-08-21T14:17:39;8.98;;;1.88;;
57433;SDS011;43277;52.672;6.984;2022-08-21T14:20:08;7.95;;;1.98;;
57433;SDS011;43277;52.672;6.984;2022-08-21T14:22:41;10.00;;;1.90;;
57433;SDS011;43277;52.672;6.984;2022-08-21T14:25:26;9.00;;;2.10;;
57433;SDS011;43277;52.672;6.984;2022-08-21T14:27:59;15.20;;;2.08;;
57433;SDS011;43277;52.672;6.984;2022-08-21T14:30:35;9.65;;;2.60;;
57433;SDS011;43277;52.672;6.984;2022-08-21T14:33:03;8.43;;;2.17;;
57433;SDS011;43277;52.672;6.984;2022-08-21T14:35:33;8.32;;;2.30;;
57433;SDS011;43277;52.672;6.984;2022-08-21T14:37:59;9.20;;;2.40;;
57433;SDS011;43277;52.672;6.984;2022-08-21T14:40:25;12.00;;;2.45;;
57433;SDS011;43277;52.672;6.984;2022-08-21T14:42:51;8.73;;;1.85;;
57433;SDS011;43277;52.672;6.984;2022-08-21T14:45:21;8.38;;;1.95;;
57433;SDS011;43277;52.672;6.984;2022-08-21T14:47:51;11.35;;;2.30;;
57433;SDS011;43277;52.672;6.984;2022-08-21T14:50:17;8.50;;;2.08;;
57433;SDS011;43277;52.672;6.984;2022-08-21T14:52:43;8.32;;;2.40;;
57433;SDS011;43277;52.672;6.984;2022-08-21T14:55:10;8.40;;;1.90;;
57433;SDS011;43277;52.672;6.984;2022-08-21T14:57:39;10.65;;;2.97;;
57433;SDS011;43277;52.672;6.984;2022-08-21T15:00:08;10.30;;;1.90;;
57433;SDS011;43277;52.672;6.984;2022-08-21T15:02:36;10.82;;;2.40;;
57433;SDS011;43277;52.672;6.984;2022-08-21T15:05:02;11.05;;;2.35;;
57433;SDS011;43277;52.672;6.984;2022-08-21T15:07:29;10.60;;;2.55;;
57433;SDS011;43277;52.672;6.984;2022-08-21T15:09:54;7.90;;;1.75;;
57433;SDS011;43277;52.672;6.984;2022-08-21T15:12:20;8.68;;;2.15;;
57433;SDS011;43277;52.672;6.984;2022-08-21T15:14:45;8.30;;;2.20;;
57433;SDS011;43277;52.672;6.984;2022-08-21T15:17:11;8.90;;;2.08;;
57433;SDS011;43277;52.672;6.984;2022-08-21T15:19:37;9.75;;;2.65;;
57433;SDS011;43277;52.672;6.984;2022-08-21T15:22:03;9.82;;;2.25;;
57433;SDS011;43277;52.672;6.984;2022-08-21T15:24:29;8.27;;;1.98;;
57433;SDS011;43277;52.672;6.984;2022-08-21T15:26:55;11.20;;;2.35;;
57433;SDS011;43277;52.672;6.984;2022-08-21T15:29:24;9.55;;;2.00;;
57433;SDS011;43277;52.672;6.984;2022-08-21T15:31:51;8.07;;;2.20;;
57433;SDS011;43277;52.672;6.984;2022-08-21T15:34:21;10.00;;;2.00;;
57433;SDS011;43277;52.672;6.984;2022-08-21T15:36:48;9.75;;;2.20;;
57433;SDS011;43277;52.672;6.984;2022-08-21T15:39:14;8.15;;;2.40;;
57433;SDS011;43277;52.672;6.984;2022-08-21T15:41:40;10.75;;;2.40;;
57433;SDS011;43277;52.672;6.984;2022-08-21T15:44:06;7.82;;;1.85;;
57433;SDS011;43277;52.672;6.984;2022-08-21T15:46:33;13.15;;;2.38;;
57433;SDS011;43277;52.672;6.984;2022-08-21T15:48:59;10.10;;;2.47;;
57433;SDS011;43277;52.672;6.984;2022-08-21T15:51:25;10.52;;;2.30;;
57433;SDS011;43277;52.672;6.984;2022-08-21T15:53:50;7.32;;;1.90;;
57433;SDS011;43277;52.672;6.984;2022-08-21T15:56:24;8.32;;;2.22;;
57433;SDS011;43277;52.672;6.984;2022-08-21T15:59:15;8.43;;;2.10;;
57433;SDS011;43277;52.672;6.984;2022-08-21T16:01:47;10.02;;;2.60;;
57433;SDS011;43277;52.672;6.984;2022-08-21T16:04:20;8.77;;;2.33;;
57433;SDS011;43277;52.672;6.984;2022-08-21T16:06:48;9.02;;;2.33;;
57433;SDS011;43277;52.672;6.984;2022-08-21T16:09:14;11.32;;;2.75;;
57433;SDS011;43277;52.672;6.984;2022-08-21T16:11:40;10.43;;;2.20;;
57433;SDS011;43277;52.672;6.984;2022-08-21T16:14:06;9.70;;;2.25;;
57433;SDS011;43277;52.672;6.984;2022-08-21T16:16:32;8.55;;;2.42;;
57433;SDS011;43277;52.672;6.984;2022-08-21T16:18:59;10.75;;;2.25;;
57433;SDS011;43277;52.672;6.984;2022-08-21T16:21:27;10.88;;;2.47;;
57433;SDS011;43277;52.672;6.984;2022-08-21T16:23:52;8.07;;;2.28;;
57433;SDS011;43277;52.672;6.984;2022-08-21T16:26:18;12.00;;;2.78;;
57433;SDS011;43277;52.672;6.984;2022-08-21T16:28:43;9.70;;;2.47;;
57433;SDS011;43277;52.672;6.984;2022-08-21T16:31:10;14.43;;;2.63;;
57433;SDS011;43277;52.672;6.984;2022-08-21T16:33:38;9.18;;;2.70;;